createdAt,value
2022-12-27T00:00:41.502Z,101071.84
2022-12-27T00:03:09.533Z,101072.53
2022-12-27T00:05:37.727Z,101069.44
2022-12-27T00:08:05.916Z,101061.38
2022-12-27T00:10:34.194Z,101058.69
2022-12-27T00:13:02.177Z,101072.97
2022-12-27T00:15:30.317Z,101065.63
2022-12-27T00:17:59.826Z,101069.84
2022-12-27T00:20:27.855Z,101068.16
2022-12-27T00:22:55.841Z,101062.50
2022-12-27T00:25:24.128Z,101061.09
2022-12-27T00:27:52.439Z,101057.56
2022-12-27T00:30:20.585Z,101052.94
2022-12-27T00:32:48.552Z,101058.03
2022-12-27T00:35:18.297Z,101062.69
2022-12-27T00:37:46.493Z,101071.28
2022-12-27T00:40:14.686Z,101066.06
2022-12-27T00:42:42.763Z,101063.09
2022-12-27T00:45:12.008Z,101061.38
2022-12-27T00:47:40.357Z,101063.38
2022-12-27T00:50:08.935Z,101064.78
2022-12-27T00:52:38.294Z,101063.38
2022-12-27T00:55:09.193Z,101075.97
2022-12-27T00:57:37.223Z,101065.66
2022-12-27T01:00:10.132Z,101066.50
2022-12-27T01:02:38.822Z,101071.88
2022-12-27T01:05:07.805Z,101076.41
2022-12-27T01:07:36.005Z,101069.88
2022-12-27T01:10:06.936Z,101063.38
2022-12-27T01:12:36.417Z,101066.75
2022-12-27T01:15:04.737Z,101070.44
2022-12-27T01:17:33.007Z,101057.50
2022-12-27T01:20:01.376Z,101039.13
2022-12-27T01:22:29.355Z,101048.00
2022-12-27T01:24:57.548Z,101049.69
2022-12-27T01:27:27.121Z,101043.47
2022-12-27T01:29:55.161Z,101044.16
2022-12-27T01:32:23.305Z,101043.47
2022-12-27T01:34:51.961Z,101031.16
2022-12-27T01:37:19.944Z,101033.00
2022-12-27T01:39:48.213Z,101046.44
2022-12-27T01:42:35.593Z,101037.69
2022-12-27T01:45:12.168Z,101058.34
2022-12-27T01:47:49.025Z,101053.50
2022-12-27T01:50:22.933Z,101060.56
2022-12-27T01:52:57.933Z,101064.97
2022-12-27T01:55:31.625Z,101058.03
2022-12-27T01:58:04.594Z,101067.50
2022-12-27T02:00:34.186Z,101063.00
2022-12-27T02:03:06.260Z,101059.34
2022-12-27T02:05:36.361Z,101048.13
2022-12-27T02:08:21.432Z,101042.22
2022-12-27T02:10:50.169Z,101043.19
2022-12-27T02:13:19.696Z,101048.84
2022-12-27T02:15:49.063Z,101054.47
2022-12-27T02:18:17.404Z,101055.88
2022-12-27T02:21:09.690Z,101053.22
2022-12-27T02:24:04.548Z,101039.66
2022-12-27T02:26:42.993Z,101036.56
2022-12-27T02:29:27.814Z,101037.56
2022-12-27T02:32:00.998Z,101052.09
2022-12-27T02:34:34.643Z,101060.28
2022-12-27T02:37:08.388Z,101059.69
2022-12-27T02:39:40.424Z,101064.38
2022-12-27T02:42:27.436Z,101070.31
2022-12-27T02:45:13.723Z,101069.88
2022-12-27T02:48:00.453Z,101071.72
2022-12-27T02:50:57.341Z,101061.09
2022-12-27T02:53:37.944Z,101061.94
2022-12-27T02:56:41.001Z,101051.38
2022-12-27T02:59:23.626Z,101048.28
2022-12-27T03:02:26.137Z,101048.13
2022-12-27T03:05:10.292Z,101047.84
2022-12-27T03:07:50.119Z,101056.59
2022-12-27T03:10:45.576Z,101069.88
2022-12-27T03:13:42.457Z,101066.91
2022-12-27T03:16:22.259Z,101056.16
2022-12-27T03:19:13.590Z,101053.94
2022-12-27T03:22:03.315Z,101054.78
2022-12-27T03:24:58.150Z,101062.13
2022-12-27T03:27:32.888Z,101063.84
2022-12-27T03:30:20.897Z,101063.69
2022-12-27T03:33:11.066Z,101045.47
2022-12-27T03:36:05.870Z,101048.56
2022-12-27T03:38:36.595Z,101044.59
2022-12-27T03:41:26.022Z,101045.19
2022-12-27T03:43:53.956Z,101036.16
2022-12-27T03:46:35.108Z,101025.97
2022-12-27T03:49:22.967Z,101020.31
2022-12-27T03:51:56.671Z,101024.00
2022-12-27T03:54:28.519Z,101027.53
2022-12-27T03:56:58.244Z,101038.81
2022-12-27T03:59:26.871Z,101032.03
2022-12-27T04:01:55.342Z,101034.44
2022-12-27T04:04:24.998Z,101028.78
2022-12-27T04:06:54.469Z,101033.56
2022-12-27T04:09:40.194Z,101036.25
2022-12-27T04:12:26.014Z,101033.16
2022-12-27T04:15:11.438Z,101023.03
2022-12-27T04:17:57.149Z,101013.56
2022-12-27T04:20:43.158Z,101012.44
2022-12-27T04:23:30.323Z,101017.50
2022-12-27T04:26:15.498Z,101018.78
2022-12-27T04:29:01.011Z,101018.09
2022-12-27T04:31:46.553Z,101020.66
2022-12-27T04:34:32.114Z,101006.81
2022-12-27T04:37:00.288Z,101007.84
2022-12-27T04:39:29.744Z,101014.47
2022-12-27T04:42:15.281Z,101015.72
2022-12-27T04:45:00.738Z,101015.56
2022-12-27T04:47:46.471Z,101026.03
2022-12-27T04:50:40.250Z,101020.97
2022-12-27T04:53:31.786Z,101010.25
2022-12-27T04:56:01.499Z,101005.72
2022-12-27T04:58:29.784Z,101004.59
2022-12-27T05:01:18.590Z,101006.84
2022-12-27T05:03:49.950Z,100998.38
2022-12-27T05:06:18.551Z,101009.53
2022-12-27T05:09:04.530Z,101000.94
2022-12-27T05:11:51.201Z,101003.75
2022-12-27T05:14:19.365Z,101000.06
2022-12-27T05:16:47.472Z,101006.28
2022-12-27T05:19:15.915Z,101004.88
2022-12-27T05:22:06.027Z,101005.44
2022-12-27T05:24:51.671Z,101014.06
2022-12-27T05:27:21.298Z,101026.06
2022-12-27T05:29:49.459Z,101021.22
2022-12-27T05:32:17.444Z,101015.28
2022-12-27T05:34:45.470Z,101022.34
2022-12-27T05:37:13.483Z,101010.78
2022-12-27T05:39:41.552Z,101008.66
2022-12-27T05:42:09.763Z,101019.38
2022-12-27T05:44:39.145Z,101016.69
2022-12-27T05:47:07.212Z,101019.53
2022-12-27T05:49:35.307Z,101019.53
2022-12-27T05:52:03.460Z,101027.44
2022-12-27T05:54:31.676Z,101021.22
2022-12-27T05:56:59.644Z,101022.06
2022-12-27T05:59:27.635Z,101031.66
2022-12-27T06:01:57.229Z,101031.94
2022-12-27T06:04:25.396Z,101027.28
2022-12-27T06:06:53.695Z,101027.13
2022-12-27T06:09:22.050Z,101025.72
2022-12-27T06:11:50.083Z,101031.66
2022-12-27T06:14:18.101Z,101041.25
2022-12-27T06:16:46.275Z,101038.28
2022-12-27T06:19:15.767Z,101031.38
2022-12-27T06:21:43.758Z,101026.72
2022-12-27T06:24:12.131Z,101024.88
2022-12-27T06:26:40.230Z,101027.44
2022-12-27T06:29:08.171Z,101019.66
2022-12-27T06:31:36.202Z,101034.91
2022-12-27T06:34:05.086Z,101034.78
2022-12-27T06:36:34.557Z,101045.50
2022-12-27T06:39:03.129Z,101057.78
2022-12-27T06:41:31.384Z,101070.22
2022-12-27T06:43:59.906Z,101072.91
2022-12-27T06:46:27.996Z,101069.22
2022-12-27T06:48:56.087Z,101068.94
2022-12-27T06:51:24.321Z,101071.22
2022-12-27T06:53:53.950Z,101068.53
2022-12-27T06:56:23.293Z,101057.09
2022-12-27T06:58:55.833Z,101038.75
2022-12-27T07:01:25.958Z,101043.13
2022-12-27T07:03:55.871Z,101047.50
2022-12-27T07:06:25.793Z,101026.59
2022-12-27T07:08:55.913Z,101028.72
2022-12-27T07:11:25.021Z,101021.94
2022-12-27T07:13:54.907Z,101035.19
2022-12-27T07:16:24.594Z,101035.03
2022-12-27T07:18:52.765Z,101035.00
2022-12-27T07:21:22.977Z,101033.47
2022-12-27T07:23:51.569Z,101041.56
2022-12-27T07:26:22.947Z,101033.06
2022-12-27T07:28:51.301Z,101035.34
2022-12-27T07:31:21.123Z,101038.41
2022-12-27T07:33:49.107Z,101032.06
2022-12-27T07:36:20.041Z,101028.94
2022-12-27T07:38:48.515Z,101026.75
2022-12-27T07:41:17.937Z,101039.22
2022-12-27T07:43:47.618Z,101019.09
2022-12-27T07:46:17.713Z,101030.38
2022-12-27T07:48:46.556Z,101036.19
2022-12-27T07:51:16.162Z,101041.13
2022-12-27T07:53:44.505Z,101043.69
2022-12-27T07:56:16.761Z,101042.69
2022-12-27T07:58:51.499Z,101049.75
2022-12-27T08:01:21.398Z,101044.69
2022-12-27T08:03:49.770Z,101047.09
2022-12-27T08:06:23.657Z,101048.50
2022-12-27T08:08:53.972Z,101045.81
2022-12-27T08:11:23.211Z,101055.84
2022-12-27T08:13:52.842Z,101053.84
2022-12-27T08:16:23.347Z,101048.63
2022-12-27T08:18:53.117Z,101047.78
2022-12-27T08:21:21.355Z,101057.94
2022-12-27T08:23:49.628Z,101061.34
2022-12-27T08:26:18.214Z,101048.34
2022-12-27T08:28:46.281Z,101066.41
2022-12-27T08:31:16.052Z,101067.81
2022-12-27T08:33:44.147Z,101060.75
2022-12-27T08:39:02.036Z,101059.31
2022-12-27T08:41:30.119Z,101058.59
2022-12-27T08:43:58.110Z,101062.94
2022-12-27T08:46:27.674Z,101068.31
2022-12-27T08:48:55.788Z,101074.53
2022-12-27T08:51:34.352Z,101067.69
2022-12-27T08:54:07.098Z,101068.41
2022-12-27T08:56:35.385Z,101077.06
2022-12-27T08:59:03.762Z,101072.28
2022-12-27T09:01:33.437Z,101075.69
2022-12-27T09:04:01.605Z,101076.09
2022-12-27T09:06:33.272Z,101072.09
2022-12-27T09:09:01.523Z,101074.34
2022-12-27T09:11:32.336Z,101067.13
2022-12-27T09:14:02.037Z,101077.00
2022-12-27T09:16:31.225Z,101075.09
2022-12-27T09:19:01.396Z,101079.63
2022-12-27T09:21:31.948Z,101079.28
2022-12-27T09:24:00.530Z,101078.41
2022-12-27T09:26:30.547Z,101074.28
2022-12-27T09:29:01.978Z,101077.22
2022-12-27T09:31:30.110Z,101068.16
2022-12-27T09:34:02.362Z,101078.31
2022-12-27T09:36:31.634Z,101067.09
2022-12-27T09:39:00.464Z,101070.47
2022-12-27T09:44:35.622Z,101074.53
2022-12-27T09:47:12.361Z,101073.97
2022-12-27T09:49:46.724Z,101063.50
2022-12-27T09:52:18.895Z,101071.25
2022-12-27T09:55:01.006Z,101072.25
2022-12-27T09:57:38.224Z,101070.84
2022-12-27T10:00:15.758Z,101080.63
2022-12-27T10:02:45.562Z,101077.34
2022-12-27T10:05:21.938Z,101085.41
2022-12-27T10:08:14.284Z,101077.50
2022-12-27T10:10:45.840Z,101081.09
2022-12-27T10:13:25.846Z,101074.19
2022-12-27T10:16:10.531Z,101078.56
2022-12-27T10:18:47.830Z,101078.91
2022-12-27T10:21:21.899Z,101088.69
2022-12-27T10:23:56.849Z,101078.41
2022-12-27T10:26:25.127Z,101076.00
2022-12-27T10:28:57.686Z,101070.63
2022-12-27T10:31:26.839Z,101063.00
2022-12-27T10:33:55.432Z,101057.34
2022-12-27T10:36:27.678Z,101053.19
2022-12-27T10:38:56.266Z,101057.75
2022-12-27T10:41:39.902Z,101045.00
2022-12-27T10:44:11.576Z,101049.72
2022-12-27T10:46:42.544Z,101047.16
2022-12-27T10:49:25.761Z,101036.88
2022-12-27T10:51:58.880Z,101046.44
2022-12-27T10:54:28.876Z,101051.13
2022-12-27T10:56:58.171Z,101041.25
2022-12-27T10:59:29.370Z,101042.09
2022-12-27T11:02:18.356Z,101032.97
2022-12-27T11:05:21.163Z,101039.34
2022-12-27T11:07:50.577Z,101041.47
2022-12-27T11:10:21.675Z,101029.94
2022-12-27T11:12:57.964Z,101021.28
2022-12-27T11:15:27.032Z,101014.97
2022-12-27T11:17:57.224Z,101025.41
2022-12-27T11:20:28.798Z,101018.66
2022-12-27T11:23:03.133Z,101015.97
2022-12-27T11:25:32.590Z,101010.28
2022-12-27T11:28:04.035Z,101003.97
2022-12-27T11:30:35.567Z,101004.81
2022-12-27T11:33:07.142Z,101003.31
2022-12-27T11:35:47.609Z,100985.22
2022-12-27T11:38:25.245Z,100998.69
2022-12-27T11:41:00.946Z,100994.72
2022-12-27T11:43:33.644Z,100995.81
2022-12-27T11:46:04.284Z,100995.88
2022-12-27T11:48:37.490Z,100991.88
2022-12-27T11:51:25.280Z,100983.72
2022-12-27T11:54:20.844Z,100991.16
2022-12-27T11:56:54.163Z,100990.72
2022-12-27T11:59:42.131Z,100983.13
2022-12-27T12:02:33.509Z,100983.81
2022-12-27T12:05:41.805Z,100972.38
2022-12-27T12:08:29.890Z,100973.44
2022-12-27T12:11:10.887Z,100966.09
2022-12-27T12:13:59.689Z,100961.28
2022-12-27T12:16:56.613Z,100963.91
2022-12-27T12:19:42.553Z,100971.88
2022-12-27T12:22:31.174Z,100964.00
2022-12-27T12:25:24.410Z,100966.69
2022-12-27T12:28:56.483Z,100964.06
2022-12-27T12:31:28.739Z,100962.31
2022-12-27T12:34:14.879Z,100956.50
2022-12-27T12:36:54.402Z,100948.56
2022-12-27T12:39:33.571Z,100947.13
2022-12-27T12:42:16.192Z,100932.31
2022-12-27T12:45:20.782Z,100940.78
2022-12-27T12:48:07.761Z,100946.38
2022-12-27T12:51:03.005Z,100935.59
2022-12-27T12:53:58.994Z,100933.66
2022-12-27T12:56:55.891Z,100939.69
2022-12-27T12:59:40.866Z,100933.47
2022-12-27T13:02:33.472Z,100933.94
2022-12-27T13:05:13.861Z,100936.88
2022-12-27T13:07:53.681Z,100919.66
2022-12-27T13:10:44.671Z,100918.72
2022-12-27T13:13:23.949Z,100923.50
2022-12-27T13:16:01.041Z,100919.50
2022-12-27T13:18:39.217Z,100912.41
2022-12-27T13:21:17.545Z,100912.78
2022-12-27T13:23:59.795Z,100887.50
2022-12-27T13:26:39.699Z,100912.03
2022-12-27T13:29:34.994Z,100919.50
2022-12-27T13:32:13.405Z,100905.94
2022-12-27T13:34:51.445Z,100915.31
2022-12-27T13:37:33.647Z,100918.41
2022-12-27T13:40:26.414Z,100907.34
2022-12-27T13:43:18.266Z,100906.72
2022-12-27T13:46:05.421Z,100905.13
2022-12-27T13:48:57.769Z,100906.53
2022-12-27T13:51:45.593Z,100912.38
2022-12-27T13:54:46.014Z,100906.44
2022-12-27T13:57:30.727Z,100892.31
2022-12-27T14:00:14.675Z,100892.34
2022-12-27T14:03:24.320Z,100899.94
2022-12-27T14:06:16.656Z,100903.34
2022-12-27T14:09:22.508Z,100883.97
2022-12-27T14:12:06.018Z,100884.97
2022-12-27T14:14:39.019Z,100863.38
2022-12-27T14:17:22.217Z,100858.31
2022-12-27T14:20:04.772Z,100862.88
2022-12-27T14:22:56.229Z,100869.94
2022-12-27T14:26:00.315Z,100867.72
2022-12-27T14:28:59.630Z,100855.94
2022-12-27T14:32:21.957Z,100855.94
2022-12-27T14:35:27.424Z,100853.94
2022-12-27T14:38:31.471Z,100855.56
2022-12-27T14:41:39.045Z,100846.16
2022-12-27T14:44:42.471Z,100851.91
2022-12-27T14:47:41.376Z,100852.06
2022-12-27T14:50:31.950Z,100855.81
2022-12-27T14:53:37.175Z,100850.75
2022-12-27T14:56:19.580Z,100856.81
2022-12-27T14:58:57.094Z,100845.19
2022-12-27T15:01:40.850Z,100846.19
2022-12-27T15:04:51.575Z,100845.31
2022-12-27T15:07:32.674Z,100836.72
2022-12-27T15:10:09.684Z,100836.34
2022-12-27T15:12:47.160Z,100842.63
2022-12-27T15:15:25.560Z,100830.56
2022-12-27T15:18:15.970Z,100850.34
2022-12-27T15:21:00.279Z,100849.19
2022-12-27T15:23:38.172Z,100843.28
2022-12-27T15:26:18.697Z,100842.56
2022-12-27T15:28:59.101Z,100855.00
2022-12-27T15:31:37.586Z,100846.25
2022-12-27T15:34:25.027Z,100836.97
2022-12-27T15:36:54.816Z,100842.22
2022-12-27T15:39:51.194Z,100842.31
2022-12-27T15:42:48.960Z,100849.28
2022-12-27T15:45:33.796Z,100845.50
2022-12-27T15:48:34.968Z,100850.72
2022-12-27T15:51:12.541Z,100848.97
2022-12-27T15:54:01.279Z,100856.22
2022-12-27T15:56:43.344Z,100855.72
2022-12-27T15:59:36.292Z,100866.53
2022-12-27T16:02:33.516Z,100858.94
2022-12-27T16:05:13.347Z,100865.97
2022-12-27T16:07:47.777Z,100851.19
2022-12-27T16:10:53.341Z,100861.94
2022-12-27T16:13:42.738Z,100873.09
2022-12-27T16:16:33.677Z,100866.19
2022-12-27T16:19:17.968Z,100870.34
2022-12-27T16:21:47.421Z,100867.66
2022-12-27T16:24:20.013Z,100867.13
2022-12-27T16:26:55.381Z,100874.19
2022-12-27T16:29:29.002Z,100874.94
2022-12-27T16:32:19.701Z,100879.69
2022-12-27T16:34:54.315Z,100870.91
2022-12-27T16:37:32.093Z,100864.69
2022-12-27T16:40:17.709Z,100869.22
2022-12-27T16:43:37.084Z,100869.22
2022-12-27T16:46:23.875Z,100873.84
2022-12-27T16:49:10.204Z,100868.22
2022-12-27T16:51:53.799Z,100879.22
2022-12-27T16:54:32.543Z,100873.81
2022-12-27T16:57:23.447Z,100867.75
2022-12-27T17:00:01.372Z,100869.22
2022-12-27T17:02:44.723Z,100871.22
2022-12-27T17:05:37.618Z,100866.25
2022-12-27T17:08:20.147Z,100878.97
2022-12-27T17:11:01.231Z,100868.91
2022-12-27T17:13:39.450Z,100836.97
2022-12-27T17:16:19.841Z,100853.97
2022-12-27T17:18:53.239Z,100844.28
2022-12-27T17:21:30.417Z,100853.72
2022-12-27T17:24:01.306Z,100857.94
2022-12-27T17:27:08.618Z,100853.63
2022-12-27T17:30:05.002Z,100854.63
2022-12-27T17:33:00.031Z,100853.53
2022-12-27T17:35:34.418Z,100846.94
2022-12-27T17:38:17.974Z,100860.69
2022-12-27T17:40:57.362Z,100857.53
2022-12-27T17:43:55.838Z,100860.00
2022-12-27T17:46:37.561Z,100853.31
2022-12-27T17:49:09.743Z,100857.91
2022-12-27T17:52:01.603Z,100857.31
2022-12-27T17:54:48.078Z,100860.84
2022-12-27T17:57:36.388Z,100867.66
2022-12-27T18:00:06.427Z,100860.00
2022-12-27T18:02:39.659Z,100870.88
2022-12-27T18:05:14.790Z,100872.56
2022-12-27T18:07:44.926Z,100866.59
2022-12-27T18:10:21.131Z,100872.38
2022-12-27T18:12:52.909Z,100863.09
2022-12-27T18:15:23.652Z,100862.47
2022-12-27T18:17:54.042Z,100873.91
2022-12-27T18:20:31.046Z,100863.84
2022-12-27T18:23:20.199Z,100853.97
2022-12-27T18:26:02.809Z,100855.22
2022-12-27T18:28:33.682Z,100858.00
2022-12-27T18:31:08.698Z,100861.53
2022-12-27T18:33:43.387Z,100863.50
2022-12-27T18:36:17.899Z,100860.75
2022-12-27T18:38:53.888Z,100870.72
2022-12-27T18:41:24.037Z,100868.53
2022-12-27T18:43:58.331Z,100865.59
2022-12-27T18:46:29.468Z,100856.13
2022-12-27T18:48:58.413Z,100865.50
2022-12-27T18:51:36.257Z,100861.66
2022-12-27T18:54:21.239Z,100854.03
2022-12-27T18:56:52.557Z,100844.47
2022-12-27T18:59:25.914Z,100844.44
2022-12-27T19:01:55.223Z,100842.66
2022-12-27T19:04:29.531Z,100847.16
2022-12-27T19:07:08.652Z,100838.09
2022-12-27T19:09:39.252Z,100824.84
2022-12-27T19:12:10.378Z,100835.53
2022-12-27T19:14:44.638Z,100832.09
2022-12-27T19:17:19.163Z,100841.75
2022-12-27T19:19:49.631Z,100841.28
2022-12-27T19:22:36.027Z,100846.53
2022-12-27T19:25:08.212Z,100848.06
2022-12-27T19:27:36.610Z,100845.13
2022-12-27T19:30:05.609Z,100845.31
2022-12-27T19:32:36.478Z,100847.59
2022-12-27T19:35:06.376Z,100845.56
2022-12-27T19:37:36.681Z,100836.81
2022-12-27T19:40:15.146Z,100835.09
2022-12-27T19:42:45.003Z,100830.03
2022-12-27T19:45:15.432Z,100833.56
2022-12-27T19:47:43.984Z,100837.56
2022-12-27T19:50:13.522Z,100814.91
2022-12-27T19:52:44.611Z,100819.72
2022-12-27T19:55:20.664Z,100831.84
2022-12-27T19:57:49.541Z,100823.72
2022-12-27T20:00:20.291Z,100818.91
2022-12-27T20:02:52.361Z,100820.75
2022-12-27T20:06:11.500Z,100814.38
2022-12-27T20:08:23.915Z,100807.22
2022-12-27T20:10:52.009Z,100814.44
2022-12-27T20:13:21.083Z,100774.09
2022-12-27T20:15:49.339Z,100798.66
2022-12-27T20:18:17.639Z,100806.28
2022-12-27T20:20:47.018Z,100801.78
2022-12-27T20:23:17.025Z,100790.91
2022-12-27T20:25:47.424Z,100796.13
2022-12-27T20:28:17.732Z,100799.78
2022-12-27T20:30:47.097Z,100795.28
2022-12-27T20:33:16.041Z,100778.66
2022-12-27T20:35:44.059Z,100778.38
2022-12-27T20:38:12.930Z,100769.47
2022-12-27T20:40:42.685Z,100772.16
2022-12-27T20:43:10.955Z,100769.75
2022-12-27T20:45:38.971Z,100748.50
2022-12-27T20:48:09.353Z,100749.91
2022-12-27T20:50:37.857Z,100748.19
2022-12-27T20:53:06.069Z,100751.38
2022-12-27T20:55:34.798Z,100755.00
2022-12-27T20:58:04.949Z,100749.47
2022-12-27T21:00:33.310Z,100753.31
2022-12-27T21:03:01.392Z,100755.31
2022-12-27T21:05:29.512Z,100745.88
2022-12-27T21:07:57.720Z,100736.31
2022-12-27T21:10:25.703Z,100735.47
2022-12-27T21:12:53.744Z,100743.00
2022-12-27T21:15:24.171Z,100742.19
2022-12-27T21:17:52.318Z,100749.38
2022-12-27T21:20:20.308Z,100739.94
2022-12-27T21:22:48.608Z,100736.88
2022-12-27T21:25:16.945Z,100732.00
2022-12-27T21:27:44.952Z,100743.47
2022-12-27T21:30:14.517Z,100738.88
2022-12-27T21:32:44.115Z,100738.94
2022-12-27T21:35:12.471Z,100734.91
2022-12-27T21:37:40.970Z,100741.09
2022-12-27T21:40:10.115Z,100737.69
2022-12-27T21:42:38.314Z,100733.91
2022-12-27T21:45:07.603Z,100734.16
2022-12-27T21:47:36.159Z,100736.22
2022-12-27T21:50:06.206Z,100734.78
2022-12-27T21:52:34.227Z,100731.66
2022-12-27T21:55:02.566Z,100734.84
2022-12-27T21:57:30.620Z,100733.75
2022-12-27T21:59:58.606Z,100733.94
2022-12-27T22:02:26.864Z,100738.88
2022-12-27T22:04:55.024Z,100731.72
2022-12-27T22:07:24.832Z,100732.28
2022-12-27T22:09:53.258Z,100741.84
2022-12-27T22:12:21.421Z,100748.47
2022-12-27T22:14:50.447Z,100747.06
2022-12-27T22:17:18.702Z,100734.25
2022-12-27T22:19:46.809Z,100683.13
2022-12-27T22:22:15.021Z,100738.19
2022-12-27T22:24:44.413Z,100747.78
2022-12-27T22:27:12.632Z,100753.84
2022-12-27T22:29:40.705Z,100751.59
2022-12-27T22:32:08.749Z,100751.03
2022-12-27T22:34:36.707Z,100749.34
2022-12-27T22:37:05.004Z,100752.56
2022-12-27T22:39:33.736Z,100758.06
2022-12-27T22:42:03.166Z,100754.13
2022-12-27T22:44:31.186Z,100756.94
2022-12-27T22:49:47.568Z,100753.13
2022-12-27T22:52:23.782Z,100760.47
2022-12-27T22:55:04.399Z,100734.41
2022-12-27T22:57:36.748Z,100757.66
2022-12-27T23:00:06.585Z,100741.16
2022-12-27T23:02:34.966Z,100750.59
2022-12-27T23:05:03.456Z,100741.72
2022-12-27T23:08:04.817Z,100737.50
2022-12-27T23:10:19.550Z,100733.84
2022-12-27T23:12:49.017Z,100741.00
2022-12-27T23:15:17.524Z,100728.47
2022-12-27T23:17:45.557Z,100726.78
2022-12-27T23:20:13.780Z,100723.25
2022-12-27T23:22:41.791Z,100725.94
2022-12-27T23:25:10.053Z,100713.69
2022-12-27T23:27:38.121Z,100712.28
2022-12-27T23:30:08.792Z,100710.16
2022-12-27T23:32:36.775Z,100707.47
2022-12-27T23:35:05.277Z,100709.03
2022-12-27T23:37:33.291Z,100695.66
2022-12-27T23:40:01.529Z,100680.44
2022-12-27T23:42:29.632Z,100695.22
2022-12-27T23:44:57.628Z,100692.69
2022-12-27T23:47:27.186Z,100687.06
2022-12-27T23:49:55.282Z,100695.78
2022-12-27T23:52:23.287Z,100687.50
2022-12-27T23:54:51.398Z,100679.56
2022-12-27T23:57:22.565Z,100692.94
2022-12-27T23:59:51.673Z,100678.31
